Chippewa Valley Regional Airport Eau Claire US
ICAO: KEAU
IATA: EAU
Category: Medium
Scheduled Services: Yes

Elevation: 913 ft
TransAlt. 18000 ft.

Airport Communications:
MINNEAPOLIS APP/DEP:125.3
ASOS:119.675
GREEN BAY RDO:122.65
CTAF/UNICOM:123

KEAU Zoom In..

Runways:

(A) RW 04 length 8101 ft width 150 ft
---- / hdg 44

(B) RW 14 length 5000 ft width 100 ft
---- / hdg 138

(C) RW 22 length 8101 ft width 150 ft
ILS 109.50 / hdg 224

(D) RW 32 length 5000 ft width 100 ft
---- / hdg 318

Location; KEAU
Day. 04 / Time. 13.56 Zulu
* Altimeter: 30.25
* Temperature: -05° c. -23°f.
* Wind from: 350° Speed 05 kn.
Dewpoint: -08° c.
Visibility: 10 Statute Miles.
Clouds: Scattered 1200 ft.

KEAU 041356Z 35005KT 10SM SCT012 M05/M08 A3025 RMK AO2 SLP257 T10501083


Wind From 350°
Speed 05 kn.

 
 
jpsmedia worldairports.se 2020   terms of use